Time;durP1;ratioP1;P1;durP2;ratioP2;P2;SDS_P1;SDS_P2;PMS_P1;PMS_P2;Temp;Humidity;BMP_temperature;BMP_pressure;BME280_temperature;BME280_humidity;BME280_pressure;Samples;Min_cycle;Max_cycle;Signal;HPM_P1;HPM_P2
2022/12/21 00:01:17;;;;;;;35.63;22.42;;;;;;;4.13;100.00;99835.78;4972834;28;20539;-89
2022/12/21 00:03:45;;;;;;;39.60;23.65;;;;;;;4.17;100.00;99827.72;4957678;28;20044;-90
2022/12/21 00:06:12;;;;;;;35.55;21.15;;;;;;;4.18;100.00;99827.63;5020659;28;20692;-90
2022/12/21 00:08:41;;;;;;;32.58;19.35;;;;;;;4.19;100.00;99825.84;5011563;28;20510;-89
2022/12/21 00:11:09;;;;;;;37.97;23.20;;;;;;;4.21;100.00;99831.84;5007666;28;20064;-90
2022/12/21 00:13:36;;;;;;;35.13;19.85;;;;;;;4.21;100.00;99823.97;5027903;28;20381;-89
2022/12/21 00:16:05;;;;;;;35.15;20.80;;;;;;;4.24;100.00;99836.91;5011661;28;20503;-88
2022/12/21 00:18:33;;;;;;;33.97;20.75;;;;;;;4.24;100.00;99836.91;5010467;28;20052;-89
2022/12/21 00:21:21;;;;;;;33.35;20.92;;;;;;;4.26;100.00;99829.78;5024674;28;20044;-89
2022/12/21 00:23:49;;;;;;;34.55;22.17;;;;;;;4.25;100.00;99821.06;4981205;28;20052;-89
2022/12/21 00:26:19;;;;;;;43.28;24.55;;;;;;;4.23;100.00;99815.06;5008452;28;20041;-88
2022/12/21 00:28:46;;;;;;;39.78;24.70;;;;;;;4.23;100.00;99812.41;5026288;28;20142;-89
2022/12/21 00:31:15;;;;;;;41.70;23.42;;;;;;;4.21;100.00;99805.56;5026216;28;20094;-89
2022/12/21 00:33:43;;;;;;;39.53;23.58;;;;;;;4.23;100.00;99809.78;4990484;28;20057;-88
2022/12/21 00:36:12;;;;;;;34.78;22.08;;;;;;;4.23;100.00;99808.97;4996160;28;20048;-88
2022/12/21 00:38:41;;;;;;;36.83;22.90;;;;;;;4.23;100.00;99806.34;5016239;28;20640;-89
2022/12/21 00:41:10;;;;;;;39.67;23.23;;;;;;;4.22;100.00;99815.97;5040983;28;20049;-88
2022/12/21 00:43:39;;;;;;;40.58;23.17;;;;;;;4.23;100.00;99806.34;5006847;28;20444;-85
2022/12/21 00:46:06;;;;;;;30.65;20.42;;;;;;;4.22;100.00;99810.72;5027084;28;20102;-88
2022/12/21 00:48:34;;;;;;;35.50;22.85;;;;;;;4.24;100.00;99800.13;5032269;28;20529;-89
2022/12/21 00:51:08;;;;;;;30.65;20.02;;;;;;;4.24;100.00;99802.75;5005430;28;20049;-89
2022/12/21 00:53:35;;;;;;;36.03;22.35;;;;;;;4.25;100.00;99805.28;5024346;28;20045;-89
2022/12/21 00:56:05;;;;;;;38.60;22.38;;;;;;;4.25;100.00;99802.66;5006806;28;20071;-88
2022/12/21 00:58:33;;;;;;;39.05;23.95;;;;;;;4.27;100.00;99806.00;5023711;28;20094;-88
2022/12/21 01:01:04;;;;;;;34.72;22.88;;;;;;;4.26;100.00;99804.34;5026177;28;20103;-88
2022/12/21 01:03:31;;;;;;;41.78;24.17;;;;;;;4.29;100.00;99808.56;5029381;28;20045;-89
2022/12/21 01:05:58;;;;;;;35.88;21.98;;;;;;;4.28;100.00;99802.47;5026200;28;20076;-89
2022/12/21 01:08:25;;;;;;;33.22;19.98;;;;;;;4.28;100.00;99805.09;5039952;28;20041;-89
2022/12/21 01:11:02;;;;;;;34.22;19.67;;;;;;;4.24;100.00;99800.97;5023618;28;20045;-88
2022/12/21 01:13:31;;;;;;;29.23;18.88;;;;;;;4.28;100.00;99804.25;5008115;28;20091;-89
2022/12/21 01:15:58;;;;;;;31.30;19.20;;;;;;;4.28;100.00;99801.63;5028693;28;20456;-88
2022/12/21 01:18:25;;;;;;;28.05;18.08;;;;;;;4.28;100.00;99799.84;5006393;28;20045;-88
2022/12/21 01:20:57;;;;;;;30.70;19.63;;;;;;;4.29;100.00;99795.41;5005444;28;21912;-86
2022/12/21 01:23:24;;;;;;;36.70;19.58;;;;;;;4.29;100.00;99796.25;5014859;28;20044;-89
2022/12/21 01:25:51;;;;;;;31.67;18.60;;;;;;;4.30;100.00;99799.72;4992064;28;20542;-88
2022/12/21 01:28:18;;;;;;;31.45;18.63;;;;;;;4.29;100.00;99798.03;4991439;28;20049;-89
2022/12/21 01:30:46;;;;;;;30.52;18.48;;;;;;;4.30;100.00;99803.22;4971593;28;20156;-87
2022/12/21 01:33:15;;;;;;;33.42;21.00;;;;;;;4.32;100.00;99809.19;5007985;28;20055;-87
2022/12/21 01:35:42;;;;;;;34.10;20.15;;;;;;;4.30;100.00;99805.84;5026221;28;20068;-88
2022/12/21 01:38:10;;;;;;;33.30;20.67;;;;;;;4.32;100.00;99811.00;5027329;28;20049;-87
2022/12/21 01:40:37;;;;;;;33.40;20.67;;;;;;;4.33;100.00;99808.28;5006975;28;20053;-88
2022/12/21 01:43:36;;;;;;;37.90;22.88;;;;;;;4.30;100.00;99810.22;5023881;28;20056;-87
2022/12/21 01:46:04;;;;;;;36.10;21.77;;;;;;;4.32;100.00;99808.34;4932737;28;20052;-88
2022/12/21 01:48:33;;;;;;;34.58;20.08;;;;;;;4.30;100.00;99808.47;5005243;28;20095;-88
2022/12/21 01:51:03;;;;;;;39.08;23.20;;;;;;;4.31;100.00;99806.69;5007172;28;20045;-88
2022/12/21 01:53:44;;;;;;;37.00;22.70;;;;;;;4.26;100.00;99804.34;5009979;28;20120;-88
2022/12/21 01:56:11;;;;;;;38.75;23.90;;;;;;;4.29;100.00;99801.50;5022679;28;20136;-89
2022/12/21 01:58:40;;;;;;;45.33;24.45;;;;;;;4.31;100.00;99801.44;4996404;28;20123;-87
2022/12/21 02:01:07;;;;;;;39.08;23.52;;;;;;;4.32;100.00;99797.84;4996860;28;20395;-86
2022/12/21 02:03:45;;;;;;;42.60;25.15;;;;;;;4.29;100.00;99796.25;5026013;28;20052;-88
2022/12/21 02:06:38;;;;;;;41.65;25.95;;;;;;;4.26;100.00;99796.44;5006013;28;20407;-88
2022/12/21 02:09:05;;;;;;;44.72;25.88;;;;;;;4.31;100.00;99789.13;4994958;28;20129;-88
2022/12/21 02:11:31;;;;;;;42.72;23.95;;;;;;;4.33;100.00;99789.03;4973333;28;20045;-88
2022/12/21 02:13:58;;;;;;;40.15;26.02;;;;;;;4.32;100.00;99782.91;5023285;28;20140;-87
2022/12/21 02:16:52;;;;;;;43.75;25.08;;;;;;;4.29;100.00;99791.00;4987223;28;20044;-88
2022/12/21 02:19:56;;;;;;;41.42;25.27;;;;;;;4.28;100.00;99780.59;4977186;28;20041;-88
2022/12/21 02:23:04;;;;;;;47.08;25.60;;;;;;;4.27;100.00;99781.53;4987414;28;20448;-88
2022/12/21 02:25:33;;;;;;;43.70;25.80;;;;;;;4.33;100.00;99786.41;4955385;28;20063;-88
2022/12/21 02:28:25;;;;;;;43.33;25.50;;;;;;;4.29;100.00;99777.84;5029564;28;20376;-87
2022/12/21 02:31:06;;;;;;;42.35;25.83;;;;;;;4.33;100.00;99768.84;4963224;28;20049;-87
2022/12/21 02:33:33;;;;;;;41.55;26.70;;;;;;;4.35;100.00;99768.72;5020316;28;20141;-88
2022/12/21 02:36:06;;;;;;;43.40;24.48;;;;;;;4.34;100.00;99772.31;5005906;28;20037;-88
2022/12/21 02:38:46;;;;;;;43.65;25.80;;;;;;;4.32;100.00;99764.50;5004510;28;20539;-86
2022/12/21 02:41:35;;;;;;;50.22;29.02;;;;;;;4.31;100.00;99772.50;4987449;28;20076;-87
2022/12/21 02:44:17;;;;;;;51.38;29.02;;;;;;;4.31;100.00;99775.97;4972812;28;20102;-87
2022/12/21 02:46:59;;;;;;;47.65;26.05;;;;;;;4.32;100.00;99766.31;5006139;28;20530;-87
2022/12/21 02:49:37;;;;;;;51.17;28.73;;;;;;;4.35;100.00;99768.72;4988706;28;20048;-88
2022/12/21 02:52:09;;;;;;;48.17;27.45;;;;;;;4.34;100.00;99767.06;5002920;28;20111;-88
2022/12/21 02:54:40;;;;;;;55.53;32.22;;;;;;;4.35;100.00;99766.97;5021766;28;20781;-88
2022/12/21 02:57:07;;;;;;;53.25;30.95;;;;;;;4.37;100.00;99766.00;5011603;28;20053;-87
2022/12/21 02:59:40;;;;;;;50.13;31.02;;;;;;;4.37;100.00;99768.66;5007090;28;20049;-87
2022/12/21 03:02:31;;;;;;;52.10;30.10;;;;;;;4.33;100.00;99773.25;4987004;28;20617;-87
2022/12/21 03:05:12;;;;;;;51.35;30.63;;;;;;;4.35;100.00;99771.34;4988228;28;20048;-87
2022/12/21 03:11:10;;;;;;;48.22;27.77;;;;;;;4.34;100.00;99761.78;4916244;28;20114;-87
2022/12/21 03:14:21;;;;;;;49.05;29.02;;;;;;;4.30;100.00;99757.66;5009002;28;21136;-84
2022/12/21 03:16:53;;;;;;;48.17;26.65;;;;;;;4.36;100.00;99759.91;4962507;28;20045;-88
2022/12/21 03:19:49;;;;;;;42.33;26.60;;;;;;;4.33;100.00;99755.69;5021747;28;20413;-87
2022/12/21 03:22:42;;;;;;;45.50;27.30;;;;;;;4.34;100.00;99752.13;4962829;28;20045;-87
2022/12/21 03:25:41;;;;;;;44.90;25.67;;;;;;;4.37;100.00;99755.50;4936831;28;20456;-86
2022/12/21 03:28:11;;;;;;;45.38;26.58;;;;;;;4.41;100.00;99754.38;4975602;28;20048;-84
2022/12/21 03:30:41;;;;;;;39.60;24.65;;;;;;;4.44;100.00;99751.53;5024580;28;21595;-87
2022/12/21 03:33:14;;;;;;;41.88;25.73;;;;;;;4.44;100.00;99754.16;5003136;28;20102;-88
2022/12/21 03:36:08;;;;;;;43.90;25.20;;;;;;;4.40;100.00;99750.03;5002383;28;20044;-87
2022/12/21 03:38:36;;;;;;;;;;;;;;;4.34;100.00;99744.22;4959845;28;20056;-87
2022/12/21 03:41:06;;;;;;;41.63;26.00;;;;;;;4.43;100.00;99748.06;5004136;28;20290;-86
2022/12/21 03:43:34;;;;;;;45.13;26.45;;;;;;;4.44;100.00;99741.84;5020108;28;20085;-87
2022/12/21 03:46:05;;;;;;;47.47;27.08;;;;;;;4.46;100.00;99741.78;5020259;28;20164;-87
2022/12/21 03:48:37;;;;;;;44.80;27.17;;;;;;;4.46;100.00;99742.63;5010012;28;20043;-87
2022/12/21 03:51:08;;;;;;;40.65;24.08;;;;;;;4.48;100.00;99738.09;5003419;28;20052;-88
2022/12/21 03:53:42;;;;;;;42.35;25.60;;;;;;;4.48;100.00;99737.25;5005266;28;20052;-88
2022/12/21 03:56:13;;;;;;;47.47;27.23;;;;;;;4.50;100.00;99730.97;5018971;28;20060;-88
2022/12/21 03:58:40;;;;;;;45.65;25.73;;;;;;;4.51;100.00;99729.16;4989636;28;20087;-87
2022/12/21 04:01:39;;;;;;;46.53;27.63;;;;;;;4.52;100.00;99729.06;5004177;28;20049;-87
2022/12/21 04:04:13;;;;;;;40.50;25.20;;;;;;;4.50;100.00;99727.47;4921550;28;20503;-87
2022/12/21 04:06:40;;;;;;;39.55;25.70;;;;;;;4.53;100.00;99727.28;5021190;28;20047;-87
2022/12/21 04:09:08;;;;;;;43.08;25.98;;;;;;;4.54;100.00;99726.34;5021422;28;20044;-88
2022/12/21 04:14:21;;;;;;;45.78;25.92;;;;;;;4.55;100.00;99730.63;5019943;28;20057;-87
2022/12/21 04:16:48;;;;;;;42.00;25.30;;;;;;;4.56;100.00;99730.56;5003901;28;20140;-87
2022/12/21 04:22:04;;;;;;;45.60;27.35;;;;;;;4.57;100.00;99729.59;5020048;28;20057;-86
2022/12/21 04:30:02;;;;;;;47.55;26.23;;;;;;;4.59;100.00;99737.41;4985753;28;20046;-88
2022/12/21 04:32:29;;;;;;;44.92;26.95;;;;;;;4.60;100.00;99731.19;5006827;28;20053;-88
2022/12/21 04:34:56;;;;;;;48.35;27.33;;;;;;;4.61;100.00;99735.50;5007094;28;20057;-88
2022/12/21 04:37:32;;;;;;;40.47;24.95;;;;;;;4.61;100.00;99726.78;5004709;28;20095;-88
2022/12/21 04:39:59;;;;;;;48.08;28.42;;;;;;;4.60;100.00;99740.88;5002611;28;20474;-87
2022/12/21 04:42:26;;;;;;;38.67;25.15;;;;;;;4.61;100.00;99737.31;4978833;28;20045;-88
2022/12/21 04:44:59;;;;;;;41.17;26.50;;;;;;;4.58;100.00;99727.84;5037903;28;20056;-88
2022/12/21 04:47:26;;;;;;;42.22;26.13;;;;;;;4.59;100.00;99733.94;4999029;28;20928;-89
2022/12/21 04:49:52;;;;;;;41.85;26.15;;;;;;;4.60;100.00;99728.56;5021446;28;20053;-88
2022/12/21 04:52:19;;;;;;;39.42;25.30;;;;;;;4.61;100.00;99734.69;5020890;28;20052;-85
2022/12/21 04:54:46;;;;;;;43.78;25.50;;;;;;;4.61;100.00;99732.06;5007273;28;20052;-89
2022/12/21 04:57:13;;;;;;;49.63;27.20;;;;;;;4.61;100.00;99727.63;5024124;28;20036;-88
2022/12/21 04:59:39;;;;;;;44.70;26.30;;;;;;;4.62;100.00;99729.31;4999715;28;20056;-88
2022/12/21 05:02:06;;;;;;;49.42;28.85;;;;;;;4.62;100.00;99718.78;5006770;28;20423;-87
2022/12/21 05:04:33;;;;;;;44.95;26.90;;;;;;;4.63;100.00;99719.63;5023547;28;20041;-88
2022/12/21 05:07:00;;;;;;;47.92;28.75;;;;;;;4.64;100.00;99722.16;5029023;28;20087;-88
2022/12/21 05:09:27;;;;;;;39.70;25.42;;;;;;;4.64;100.00;99718.69;4990696;28;20048;-88
2022/12/21 05:11:53;;;;;;;48.92;28.00;;;;;;;4.64;100.00;99716.06;5006857;28;20049;-88
2022/12/21 05:14:20;;;;;;;49.10;27.85;;;;;;;4.65;100.00;99715.09;4976132;28;21418;-88
2022/12/21 05:16:47;;;;;;;45.45;26.90;;;;;;;4.65;100.00;99720.38;5022731;28;20104;-88
2022/12/21 05:19:14;;;;;;;41.92;26.77;;;;;;;4.66;100.00;99714.19;5008395;28;20037;-87
2022/12/21 05:21:41;;;;;;;46.28;27.73;;;;;;;4.66;100.00;99715.03;5007089;28;20044;-87
2022/12/21 05:24:08;;;;;;;50.72;28.58;;;;;;;4.67;100.00;99716.69;5023795;28;20044;-88
2022/12/21 05:26:34;;;;;;;49.25;29.80;;;;;;;4.68;100.00;99717.53;4990746;28;20057;-88
2022/12/21 05:29:01;;;;;;;51.08;27.48;;;;;;;4.67;100.00;99715.84;4993677;28;20052;-88
2022/12/21 05:31:27;;;;;;;47.90;27.75;;;;;;;4.66;100.00;99708.91;5021951;28;20396;-88
2022/12/21 05:33:54;;;;;;;46.58;25.85;;;;;;;4.67;100.00;99711.44;5006878;28;20199;-84
2022/12/21 05:36:21;;;;;;;38.58;23.38;;;;;;;4.66;100.00;99709.75;5007952;28;20044;-87
2022/12/21 05:38:48;;;;;;;37.80;22.15;;;;;;;4.66;100.00;99708.91;5007313;28;20049;-88
2022/12/21 05:41:16;;;;;;;33.90;20.05;;;;;;;4.66;100.00;99715.03;5005127;28;24689;-88
2022/12/21 05:43:44;;;;;;;39.85;21.25;;;;;;;4.66;100.00;99708.91;5039411;28;20052;-87
2022/12/21 05:46:11;;;;;;;38.20;22.67;;;;;;;4.66;100.00;99703.66;5005717;28;20037;-88
2022/12/21 05:48:39;;;;;;;33.30;21.38;;;;;;;4.66;100.00;99704.50;5007320;28;20055;-88
2022/12/21 05:51:07;;;;;;;50.92;26.00;;;;;;;4.62;100.00;99703.00;5020885;28;20088;-87
2022/12/21 05:53:35;;;;;;;41.13;23.58;;;;;;;4.65;100.00;99704.59;5025152;28;20037;-87
2022/12/21 05:56:02;;;;;;;39.30;24.38;;;;;;;4.65;100.00;99708.06;4991177;28;20055;-87
2022/12/21 05:58:30;;;;;;;46.00;27.67;;;;;;;4.65;100.00;99696.69;4998640;28;20044;-87
2022/12/21 06:01:01;;;;;;;50.88;28.75;;;;;;;4.64;100.00;99693.22;5020481;28;20838;-87
2022/12/21 06:03:28;;;;;;;45.53;27.60;;;;;;;4.65;100.00;99694.91;5023534;28;20512;-84
2022/12/21 06:06:03;;;;;;;45.28;26.80;;;;;;;4.63;100.00;99694.19;4994211;28;20052;-87
2022/12/21 06:08:31;;;;;;;42.08;25.20;;;;;;;4.67;100.00;99694.81;5003435;28;20045;-87
2022/12/21 06:11:06;;;;;;;43.78;25.85;;;;;;;4.68;100.00;99688.59;5022649;28;20132;-87
2022/12/21 06:13:33;;;;;;;41.78;25.52;;;;;;;4.70;100.00;99691.97;5021264;28;20099;-87
2022/12/21 06:16:17;;;;;;;44.92;26.33;;;;;;;4.68;100.00;99681.56;5005957;28;20135;-83
2022/12/21 06:18:45;;;;;;;44.42;26.92;;;;;;;4.71;100.00;99688.41;4973728;28;20128;-89
2022/12/21 06:21:14;;;;;;;41.30;25.90;;;;;;;4.72;100.00;99684.84;4973010;28;20044;-87
2022/12/21 06:23:41;;;;;;;40.15;25.05;;;;;;;4.72;100.00;99687.47;5007782;28;20496;-86
2022/12/21 06:26:11;;;;;;;49.13;28.17;;;;;;;4.72;100.00;99690.94;5021494;28;20053;-86
2022/12/21 06:28:38;;;;;;;42.70;25.15;;;;;;;4.73;100.00;99697.03;5022250;28;20095;-87
2022/12/21 06:31:07;;;;;;;42.58;24.58;;;;;;;4.74;100.00;99696.94;5022748;28;20045;-88
2022/12/21 06:33:35;;;;;;;38.75;23.80;;;;;;;4.76;100.00;99696.84;5024772;28;20666;-87
2022/12/21 06:36:02;;;;;;;40.22;23.90;;;;;;;4.76;100.00;99704.75;4996979;28;20053;-87
2022/12/21 06:38:30;;;;;;;39.28;24.70;;;;;;;4.75;100.00;99695.97;5007900;28;20411;-84
2022/12/21 06:40:59;;;;;;;38.95;24.52;;;;;;;4.76;100.00;99694.22;5005828;28;20403;-84
2022/12/21 06:43:28;;;;;;;39.28;23.05;;;;;;;4.77;100.00;99698.53;5008228;28;20537;-83
2022/12/21 06:45:57;;;;;;;39.00;24.15;;;;;;;4.78;100.00;99706.31;4985572;28;20049;-83
2022/12/21 06:48:24;;;;;;;36.60;24.80;;;;;;;4.78;100.00;99697.56;5009935;28;20068;-84
2022/12/21 06:50:53;;;;;;;34.53;22.85;;;;;;;4.80;100.00;99700.94;4986063;28;21415;-83
2022/12/21 06:53:22;;;;;;;33.15;21.83;;;;;;;4.79;100.00;99694.84;5003822;28;20053;-84
2022/12/21 06:55:48;;;;;;;34.03;21.50;;;;;;;4.80;100.00;99706.19;5007546;28;20454;-83
2022/12/21 06:58:16;;;;;;;36.47;22.85;;;;;;;4.81;100.00;99704.41;4993044;28;20048;-84
2022/12/21 07:00:42;;;;;;;36.92;22.63;;;;;;;4.81;100.00;99699.16;4974547;28;20143;-83
2022/12/21 07:03:09;;;;;;;35.05;23.98;;;;;;;4.83;100.00;99702.53;5004726;28;20064;-83
2022/12/21 07:05:38;;;;;;;47.85;25.17;;;;;;;4.84;100.00;99706.84;5010838;28;20033;-83
2022/12/21 07:08:05;;;;;;;47.20;26.38;;;;;;;4.84;100.00;99706.84;5007880;28;20052;-83
2022/12/21 07:10:31;;;;;;;42.92;25.95;;;;;;;4.84;100.00;99712.97;5003798;28;20099;-83
2022/12/21 07:13:04;;;;;;;46.10;25.40;;;;;;;4.84;100.00;99710.31;5005072;28;20052;-84
2022/12/21 07:15:32;;;;;;;38.38;24.48;;;;;;;4.85;100.00;99719.88;4988126;28;20492;-83
2022/12/21 07:17:59;;;;;;;47.47;25.73;;;;;;;4.84;100.00;99720.00;4985618;28;20057;-84
2022/12/21 07:20:25;;;;;;;46.75;26.67;;;;;;;4.85;100.00;99719.88;5020599;28;20056;-83
2022/12/21 07:22:52;;;;;;;70.40;34.05;;;;;;;4.84;100.00;99718.22;5004270;28;20046;-83
2022/12/21 07:25:19;;;;;;;67.35;32.05;;;;;;;4.84;100.00;99715.59;4991882;28;20060;-84
2022/12/21 07:27:45;;;;;;;80.63;33.25;;;;;;;4.85;100.00;99725.16;5001095;28;20048;-83
2022/12/21 07:30:13;;;;;;;64.43;31.02;;;;;;;4.86;100.00;99723.34;5005121;28;20044;-84
2022/12/21 07:32:40;;;;;;;54.38;27.52;;;;;;;4.86;100.00;99726.00;4988403;28;20056;-84
2022/12/21 07:35:08;;;;;;;43.45;24.95;;;;;;;4.88;100.00;99724.09;5024340;28;20041;-83
2022/12/21 07:37:35;;;;;;;44.65;24.75;;;;;;;4.87;100.00;99728.53;5003614;28;20049;-83
2022/12/21 07:40:04;;;;;;;35.97;22.45;;;;;;;4.90;100.00;99735.38;4988887;28;20110;-84
2022/12/21 07:42:31;;;;;;;41.05;22.27;;;;;;;4.90;100.00;99728.31;5006201;28;20095;-85
2022/12/21 07:45:04;;;;;;;33.67;22.45;;;;;;;4.91;100.00;99729.16;5005816;28;20415;-83
2022/12/21 07:47:37;;;;;;;32.60;20.50;;;;;;;4.91;100.00;99721.25;4984664;28;20515;-83
2022/12/21 07:50:06;;;;;;;32.17;21.10;;;;;;;4.94;100.00;99734.25;5007293;28;20111;-83
2022/12/21 07:52:33;;;;;;;39.03;22.33;;;;;;;4.93;100.00;99729.91;5007246;28;20049;-83
2022/12/21 07:55:00;;;;;;;39.47;24.13;;;;;;;4.93;100.00;99733.38;5004940;28;20378;-83
2022/12/21 07:57:27;;;;;;;39.33;25.27;;;;;;;4.94;100.00;99740.34;5023558;28;20578;-83
2022/12/21 07:59:53;;;;;;;40.53;25.65;;;;;;;4.94;100.00;99742.13;4988697;28;20052;-83
2022/12/21 08:02:21;;;;;;;43.40;27.35;;;;;;;4.94;100.00;99740.34;5005040;28;20627;-84
2022/12/21 08:04:48;;;;;;;45.33;25.95;;;;;;;4.94;100.00;99742.97;5021924;28;20037;-84
2022/12/21 08:07:15;;;;;;;39.67;22.88;;;;;;;4.96;100.00;99742.84;5004215;28;20541;-84
2022/12/21 08:09:41;;;;;;;39.58;23.35;;;;;;;4.97;100.00;99744.56;5005898;28;20115;-83
2022/12/21 08:12:08;;;;;;;41.53;25.38;;;;;;;4.99;100.00;99747.94;5021226;28;20044;-82
2022/12/21 08:14:43;;;;;;;40.50;25.23;;;;;;;4.98;100.00;99748.84;5006807;28;20130;-82
2022/12/21 08:17:10;;;;;;;42.00;25.23;;;;;;;4.98;100.00;99754.13;5024889;28;20403;-82
2022/12/21 08:19:37;;;;;;;42.15;24.42;;;;;;;4.99;100.00;99756.66;5004929;28;20104;-82
2022/12/21 08:22:22;;;;;;;;;;;;;;;;;;;;;
2022/12/21 08:25:31;;;;;;;37.03;21.90;;;;;;;4.97;100.00;99755.91;4798487;29;20571;-82
2022/12/21 08:28:12;;;;;;;41.95;25.25;;;;;;;4.99;100.00;99761.94;4856914;29;20512;-84
2022/12/21 08:31:09;;;;;;;50.60;25.77;;;;;;;4.98;100.00;99767.28;4843887;29;20660;-83
2022/12/21 08:33:50;;;;;;;52.92;28.17;;;;;;;5.00;100.00;99766.22;4846312;29;20055;-81
2022/12/21 08:36:31;;;;;;;43.35;27.38;;;;;;;5.00;100.00;99760.97;4861773;29;20055;-82
2022/12/21 08:39:12;;;;;;;47.22;26.70;;;;;;;5.03;100.00;99770.44;4840777;29;20179;-81
2022/12/21 08:41:53;;;;;;;50.88;27.55;;;;;;;5.04;100.00;99764.25;4866859;29;20195;-80
2022/12/21 08:44:33;;;;;;;37.03;22.60;;;;;;;5.06;100.00;99764.13;4872023;29;20502;-82
2022/12/21 08:47:13;;;;;;;43.97;25.20;;;;;;;5.07;100.00;99765.84;5011722;27;21013;-81
2022/12/21 08:49:39;;;;;;;40.60;23.73;;;;;;;5.09;100.00;99766.56;4994460;28;20396;-81
2022/12/21 08:52:06;;;;;;;40.08;23.92;;;;;;;5.10;100.00;99765.63;4992036;28;20049;-81
2022/12/21 08:54:33;;;;;;;37.92;21.63;;;;;;;5.13;100.00;99765.41;4982637;28;20108;-82
2022/12/21 08:57:00;;;;;;;40.65;23.75;;;;;;;5.13;100.00;99762.78;5009203;28;20057;-81
2022/12/21 08:59:26;;;;;;;39.75;23.08;;;;;;;5.14;100.00;99765.31;5011118;28;20047;-81
2022/12/21 09:01:53;;;;;;;39.25;23.35;;;;;;;5.16;100.00;99762.56;4980607;28;20446;-83
2022/12/21 09:04:20;;;;;;;38.78;24.25;;;;;;;5.15;100.00;99756.47;4963095;28;20053;-82
2022/12/21 09:06:47;;;;;;;45.40;27.70;;;;;;;5.17;100.00;99759.84;4982551;28;20061;-82
2022/12/21 09:09:14;;;;;;;52.10;29.70;;;;;;;5.17;100.00;99759.00;4999606;28;20061;-82
2022/12/21 09:11:41;;;;;;;56.78;30.08;;;;;;;5.18;100.00;99761.53;4991145;28;20062;-82
2022/12/21 09:14:20;;;;;;;55.38;29.58;;;;;;;5.19;100.00;99759.72;4988947;28;20049;-82
2022/12/21 09:16:47;;;;;;;50.15;30.30;;;;;;;5.20;100.00;99769.31;4993424;28;20069;-82
2022/12/21 09:19:14;;;;;;;53.33;31.05;;;;;;;5.20;100.00;99766.69;4996292;28;20054;-83
2022/12/21 09:21:40;;;;;;;60.67;34.10;;;;;;;5.22;100.00;99759.53;4990782;28;20049;-82
2022/12/21 09:24:07;;;;;;;61.80;32.90;;;;;;;5.22;100.00;99756.91;4998298;28;20516;-82
2022/12/21 09:26:34;;;;;;;53.17;30.33;;;;;;;5.23;100.00;99756.78;4997376;28;20120;-81
2022/12/21 09:29:02;;;;;;;51.67;31.88;;;;;;;5.25;100.00;99759.34;4995999;28;20053;-83
2022/12/21 09:31:28;;;;;;;59.25;33.95;;;;;;;5.23;100.00;99759.44;4996774;28;20064;-82
2022/12/21 09:33:56;;;;;;;67.68;36.53;;;;;;;5.27;100.00;99760.06;4983393;28;20046;-82
2022/12/21 09:36:24;;;;;;;60.40;33.67;;;;;;;5.27;100.00;99760.06;5000613;28;20052;-82
2022/12/21 09:38:54;;;;;;;59.90;32.92;;;;;;;5.27;100.00;99765.34;4981552;28;20054;-82
2022/12/21 09:41:36;;;;;;;57.17;33.55;;;;;;;5.29;100.00;99765.22;4982303;28;20053;-81
2022/12/21 09:44:06;;;;;;;59.20;32.30;;;;;;;5.28;100.00;99759.13;4976442;28;20046;-81
2022/12/21 09:46:35;;;;;;;53.28;32.65;;;;;;;5.29;100.00;99765.22;5013206;28;20049;-82
2022/12/21 09:49:07;;;;;;;58.20;33.10;;;;;;;5.31;100.00;99771.22;4997730;28;20487;-83
2022/12/21 09:51:35;;;;;;;64.80;35.42;;;;;;;5.30;100.00;99769.56;5005446;28;20045;-83
2022/12/21 09:54:17;;;;;;;61.08;33.90;;;;;;;5.27;100.00;99770.59;5011130;28;20060;-82
2022/12/21 09:56:48;;;;;;;55.42;31.88;;;;;;;5.32;100.00;99771.13;4929746;28;20456;-82
2022/12/21 09:59:17;;;;;;;57.25;34.78;;;;;;;5.33;100.00;99771.97;4973304;28;20437;-83
2022/12/21 10:02:14;;;;;;;55.78;31.58;;;;;;;5.31;100.00;99765.97;4945711;28;20078;-83
2022/12/21 10:04:54;;;;;;;58.42;32.47;;;;;;;5.33;100.00;99753.53;4933771;28;20867;-83
2022/12/21 10:08:00;;;;;;;60.10;30.83;;;;;;;5.36;100.00;99761.22;4965734;28;20050;-83
2022/12/21 10:10:39;;;;;;;64.78;35.55;;;;;;;5.32;100.00;99760.59;4964151;28;20046;-83
2022/12/21 10:13:47;;;;;;;67.53;38.45;;;;;;;5.35;100.00;99767.47;4974583;28;20098;-83
2022/12/21 10:16:48;;;;;;;58.72;34.13;;;;;;;5.36;100.00;99772.59;4938903;28;20042;-83
2022/12/21 10:19:43;;;;;;;59.13;33.58;;;;;;;5.40;100.00;99763.56;4922996;28;20560;-83
2022/12/21 10:22:25;;;;;;;65.80;34.80;;;;;;;5.41;100.00;99767.03;4991489;28;20054;-83
2022/12/21 10:24:58;;;;;;;68.50;33.53;;;;;;;5.45;100.00;99773.78;4983153;28;20050;-82
2022/12/21 10:27:26;;;;;;;;;;;;;;;5.35;100.00;99770.94;4997755;28;20042;-82
2022/12/21 10:29:56;;;;;;;44.10;26.10;;;;;;;5.44;100.00;99764.19;4975899;28;19940;-83
2022/12/21 10:32:34;;;;;;;50.40;27.73;;;;;;;5.44;100.00;99762.41;4967060;28;20077;-83
2022/12/21 10:35:46;;;;;;;40.97;25.33;;;;;;;5.46;100.00;99764.09;4983924;28;20531;-83
2022/12/21 10:38:15;;;;;;;44.13;23.95;;;;;;;5.53;100.00;99766.19;4951831;28;20054;-84
2022/12/21 10:40:45;;;;;;;53.67;28.20;;;;;;;5.56;100.00;99759.88;4958574;28;20049;-84
2022/12/21 10:43:12;;;;;;;45.25;25.13;;;;;;;5.58;100.00;99756.19;4966641;28;20473;-83
2022/12/21 10:45:39;;;;;;;48.42;26.50;;;;;;;5.61;100.00;99750.69;4997485;28;20042;-83
2022/12/21 10:48:07;;;;;;;47.38;27.52;;;;;;;5.64;100.00;99753.09;4999143;28;20112;-83
2022/12/21 10:50:39;;;;;;;39.28;22.25;;;;;;;5.66;100.00;99751.22;4966548;28;20038;-83
2022/12/21 10:53:26;;;;;;;50.75;26.92;;;;;;;5.65;100.00;99751.34;4979327;28;20501;-83
2022/12/21 10:55:55;;;;;;;49.80;27.92;;;;;;;5.71;100.00;99745.63;4930444;28;20043;-83
2022/12/21 10:58:25;;;;;;;42.83;25.10;;;;;;;5.74;100.00;99750.69;4964695;28;20046;-84
2022/12/21 11:01:04;;;;;;;49.58;27.75;;;;;;;5.74;100.00;99747.22;4973957;28;20073;-84
2022/12/21 11:03:34;;;;;;;44.63;24.67;;;;;;;5.80;100.00;99750.28;4970994;28;20058;-83
2022/12/21 11:06:15;;;;;;;56.30;27.77;;;;;;;5.81;100.00;99744.03;4926398;28;20050;-83
2022/12/21 11:08:52;;;;;;;48.20;26.42;;;;;;;5.85;100.00;99744.66;4963561;28;20043;-84
2022/12/21 11:11:37;;;;;;;44.30;24.63;;;;;;;5.87;100.00;99746.22;4961613;28;20052;-84
2022/12/21 11:14:12;;;;;;;42.97;24.95;;;;;;;5.93;100.00;99738.84;4975994;28;20108;-84
2022/12/21 11:16:39;;;;;;;52.90;27.20;;;;;;;5.96;100.00;99738.69;4997081;28;20057;-82
2022/12/21 11:19:11;;;;;;;49.50;25.75;;;;;;;5.97;100.00;99728.00;4966144;28;20119;-83
2022/12/21 11:21:48;;;;;;;43.97;25.15;;;;;;;6.02;100.00;99723.25;4993864;28;20061;-82
2022/12/21 11:24:25;;;;;;;54.70;29.70;;;;;;;6.05;100.00;99728.31;4969025;28;20050;-82
2022/12/21 11:26:59;;;;;;;85.15;42.92;;;;;;;6.09;100.00;99726.31;4981669;28;20050;-82
2022/12/21 11:29:28;;;;;;;62.58;36.00;;;;;;;6.13;100.00;99725.16;4965817;28;20087;-82
2022/12/21 11:31:56;;;;;;;105.70;52.70;;;;;;;6.15;100.00;99722.38;4996337;28;20064;-82
2022/12/21 11:34:33;;;;;;;80.93;44.03;;;;;;;6.13;100.00;99716.38;4961105;28;20047;-83
2022/12/21 11:37:19;;;;;;;67.30;36.97;;;;;;;6.17;100.00;99712.56;4990928;28;20449;-83
2022/12/21 11:39:46;;;;;;;58.67;34.60;;;;;;;6.19;100.00;99713.31;4949649;28;20050;-83
2022/12/21 11:42:23;;;;;;;56.08;32.70;;;;;;;6.19;100.00;99711.50;4962381;28;20085;-83
2022/12/21 11:44:52;;;;;;;54.22;28.50;;;;;;;6.26;100.00;99717.19;5002516;28;20042;-83
2022/12/21 11:47:46;;;;;;;42.03;25.02;;;;;;;6.24;100.00;99709.38;4979966;28;20047;-83
2022/12/21 11:50:19;;;;;;;45.22;25.50;;;;;;;6.29;100.00;99709.06;4948148;28;20045;-84
2022/12/21 11:52:49;;;;;;;47.20;26.48;;;;;;;6.32;100.00;99708.81;4988981;28;20559;-83
2022/12/21 11:55:41;;;;;;;41.58;22.95;;;;;;;6.33;100.00;99701.75;4963268;28;20049;-84
2022/12/21 11:58:37;;;;;;;37.30;23.20;;;;;;;6.38;100.00;99703.09;4935739;28;20131;-83